createdAt,value
2023-04-10T00:00:50.789Z,1000.34
2023-04-10T00:01:50.813Z,1000.31
2023-04-10T00:02:50.998Z,1000.28
2023-04-10T00:03:50.883Z,1000.35
2023-04-10T00:04:50.794Z,1000.33
2023-04-10T00:05:50.725Z,1000.30
2023-04-10T00:06:50.712Z,1000.31
2023-04-10T00:07:50.721Z,1000.29
2023-04-10T00:08:50.689Z,1000.30
2023-04-10T00:09:50.690Z,1000.29
2023-04-10T00:10:50.679Z,1000.27
2023-04-10T00:11:50.669Z,1000.25
2023-04-10T00:12:50.647Z,1000.27
2023-04-10T00:13:50.648Z,1000.29
2023-04-10T00:14:50.625Z,1000.24
2023-04-10T00:15:50.625Z,1000.30
2023-04-10T00:16:50.633Z,1000.33
2023-04-10T00:17:50.698Z,1000.20
2023-04-10T00:18:50.608Z,1000.23
2023-04-10T00:19:50.578Z,1000.13
2023-04-10T00:20:50.568Z,1000.20
2023-04-10T00:21:50.559Z,1000.17
2023-04-10T00:22:50.549Z,1000.10
2023-04-10T00:23:50.544Z,1000.25
2023-04-10T00:24:50.528Z,1000.13
2023-04-10T00:25:50.529Z,1000.14
2023-04-10T00:26:50.507Z,1000.18
2023-04-10T00:27:50.492Z,1000.23
2023-04-10T00:28:50.502Z,1000.20
2023-04-10T00:29:50.470Z,1000.17
2023-04-10T00:30:50.465Z,1000.18
2023-04-10T00:31:50.498Z,1000.30
2023-04-10T00:32:50.487Z,1000.23
2023-04-10T00:33:50.458Z,1000.33
2023-04-10T00:34:50.424Z,1000.28
2023-04-10T00:35:50.503Z,1000.29
2023-04-10T00:36:50.401Z,1000.32
2023-04-10T00:37:50.396Z,1000.29
2023-04-10T00:38:50.387Z,1000.36
2023-04-10T00:39:50.376Z,1000.26
2023-04-10T00:40:50.359Z,1000.20
2023-04-10T00:41:50.356Z,1000.29
2023-04-10T00:42:50.336Z,1000.36
2023-04-10T00:43:50.392Z,1000.29
2023-04-10T00:44:50.316Z,1000.43
2023-04-10T00:45:50.925Z,1000.33
2023-04-10T00:46:50.298Z,1000.32
2023-04-10T00:47:50.321Z,1000.36
2023-04-10T00:48:50.287Z,1000.41
2023-04-10T00:49:50.272Z,1000.40
2023-04-10T00:50:50.256Z,1000.40
2023-04-10T00:51:50.251Z,1000.35
2023-04-10T00:52:50.238Z,1000.36
2023-04-10T00:53:50.239Z,1000.43
2023-04-10T00:54:50.219Z,1000.37
2023-04-10T00:55:50.259Z,1000.45
2023-04-10T00:56:50.194Z,1000.44
2023-04-10T00:57:50.190Z,1000.46
2023-04-10T00:58:50.181Z,1000.47
2023-04-10T00:59:50.163Z,1000.41
2023-04-10T01:00:50.149Z,1000.51
2023-04-10T01:01:50.286Z,1000.53
2023-04-10T01:02:50.304Z,1000.48
2023-04-10T01:03:50.228Z,1000.51
2023-04-10T01:04:50.115Z,1000.57
2023-04-10T01:05:50.104Z,1000.44
2023-04-10T01:06:50.085Z,1000.49
2023-04-10T01:07:50.082Z,1000.55
2023-04-10T01:08:50.075Z,1000.47
2023-04-10T01:09:50.059Z,1000.59
2023-04-10T01:10:50.046Z,1000.51
2023-04-10T01:11:50.037Z,1000.44
2023-04-10T01:12:50.036Z,1000.48
2023-04-10T01:13:50.022Z,1000.45
2023-04-10T01:14:49.998Z,1000.41
2023-04-10T01:15:49.990Z,1000.41
2023-04-10T01:16:50.063Z,1000.48
2023-04-10T01:17:49.993Z,1000.47
2023-04-10T01:18:49.976Z,1000.46
2023-04-10T01:19:49.955Z,1000.61
2023-04-10T01:20:49.933Z,1000.56
2023-04-10T01:21:49.930Z,1000.48
2023-04-10T01:22:49.910Z,1000.53
2023-04-10T01:23:49.933Z,1000.53
2023-04-10T01:24:49.905Z,1000.53
2023-04-10T01:25:49.880Z,1000.48
2023-04-10T01:26:49.891Z,1000.50
2023-04-10T01:27:49.875Z,1000.50
2023-04-10T01:28:49.867Z,1000.52
2023-04-10T01:29:49.842Z,1000.49
2023-04-10T01:30:49.884Z,1000.45
2023-04-10T01:31:49.824Z,1000.43
2023-04-10T01:32:49.870Z,1000.44
2023-04-10T01:33:49.818Z,1000.44
2023-04-10T01:34:49.788Z,1000.40
2023-04-10T01:35:49.806Z,1000.56
2023-04-10T01:36:49.768Z,1000.57
2023-04-10T01:37:49.772Z,1000.43
2023-04-10T01:38:49.755Z,1000.51
2023-04-10T01:39:49.747Z,1000.54
2023-04-10T01:40:49.734Z,1000.44
2023-04-10T01:41:49.722Z,1000.43
2023-04-10T01:42:49.712Z,1000.43
2023-04-10T01:43:49.716Z,1000.46
2023-04-10T01:44:49.695Z,1000.47
2023-04-10T01:45:49.691Z,1000.41
2023-04-10T01:46:49.796Z,1000.56
2023-04-10T01:47:49.681Z,1000.48
2023-04-10T01:48:49.670Z,1000.49
2023-04-10T01:49:49.639Z,1000.50
2023-04-10T01:50:49.638Z,1000.51
2023-04-10T01:51:49.634Z,1000.51
2023-04-10T01:52:49.613Z,1000.52
2023-04-10T01:53:49.609Z,1000.57
2023-04-10T01:54:49.597Z,1000.56
2023-04-10T01:55:49.586Z,1000.50
2023-04-10T01:56:49.572Z,1000.57
2023-04-10T01:57:49.560Z,1000.44
2023-04-10T01:58:49.566Z,1000.54
2023-04-10T01:59:49.543Z,1000.48
2023-04-10T02:00:49.536Z,1000.42
2023-04-10T02:01:49.571Z,1000.50
2023-04-10T02:02:49.645Z,1000.52
2023-04-10T02:03:49.609Z,1000.50
2023-04-10T02:04:49.548Z,1000.57
2023-04-10T02:05:49.479Z,1000.44
2023-04-10T02:06:49.475Z,1000.48
2023-04-10T02:07:49.458Z,1000.50
2023-04-10T02:08:49.468Z,1000.49
2023-04-10T02:09:49.446Z,1000.41
2023-04-10T02:10:49.427Z,1000.42
2023-04-10T02:11:49.443Z,1000.41
2023-04-10T02:12:49.412Z,1000.47
2023-04-10T02:13:49.413Z,1000.35
2023-04-10T02:14:49.393Z,1000.35
2023-04-10T02:15:49.403Z,1000.29
2023-04-10T02:16:49.376Z,1000.26
2023-04-10T02:17:49.384Z,1000.36
2023-04-10T02:18:49.370Z,1000.33
2023-04-10T02:19:49.360Z,1000.29
2023-04-10T02:20:49.336Z,1000.27
2023-04-10T02:21:49.326Z,1000.31
2023-04-10T02:22:49.311Z,1000.29
2023-04-10T02:23:49.304Z,1000.23
2023-04-10T02:24:49.299Z,1000.24
2023-04-10T02:25:49.290Z,1000.22
2023-04-10T02:26:49.260Z,1000.25
2023-04-10T02:27:49.251Z,1000.30
2023-04-10T02:28:49.245Z,1000.25
2023-04-10T02:29:49.241Z,1000.21
2023-04-10T02:30:49.254Z,1000.19
2023-04-10T02:31:49.220Z,1000.31
2023-04-10T02:32:49.244Z,1000.16
2023-04-10T02:33:49.190Z,1000.25
2023-04-10T02:34:49.187Z,1000.22
2023-04-10T02:35:49.184Z,1000.19
2023-04-10T02:36:49.162Z,1000.31
2023-04-10T02:37:49.149Z,1000.24
2023-04-10T02:38:49.141Z,1000.21
2023-04-10T02:39:49.147Z,1000.24
2023-04-10T02:40:49.126Z,1000.27
2023-04-10T02:41:49.113Z,1000.23
2023-04-10T02:42:49.104Z,1000.21
2023-04-10T02:43:49.088Z,1000.23
2023-04-10T02:44:49.092Z,1000.18
2023-04-10T02:45:49.078Z,1000.22
2023-04-10T02:46:49.093Z,1000.11
2023-04-10T02:47:49.172Z,1000.14
2023-04-10T02:48:49.036Z,1000.21
2023-04-10T02:49:49.043Z,1000.27
2023-04-10T02:50:49.020Z,1000.24
2023-04-10T02:51:49.012Z,1000.22
2023-04-10T02:52:49.003Z,1000.19
2023-04-10T02:53:48.997Z,1000.21
2023-04-10T02:54:48.998Z,1000.26
2023-04-10T02:55:48.975Z,1000.27
2023-04-10T02:56:48.970Z,1000.19
2023-04-10T02:57:48.947Z,1000.22
2023-04-10T02:58:48.933Z,1000.24
2023-04-10T02:59:48.932Z,1000.25
2023-04-10T03:00:48.915Z,1000.26
2023-04-10T03:01:49.013Z,1000.16
2023-04-10T03:02:49.103Z,1000.20
2023-04-10T03:03:48.949Z,1000.21
2023-04-10T03:04:48.940Z,1000.12
2023-04-10T03:05:48.863Z,1000.12
2023-04-10T03:06:48.849Z,1000.13
2023-04-10T03:07:48.853Z,1000.23
2023-04-10T03:08:48.830Z,1000.14
2023-04-10T03:09:48.828Z,1000.15
2023-04-10T03:10:48.815Z,1000.17
2023-04-10T03:11:48.795Z,1000.28
2023-04-10T03:12:48.830Z,1000.25
2023-04-10T03:13:48.782Z,1000.15
2023-04-10T03:14:48.801Z,1000.12
2023-04-10T03:15:48.790Z,1000.12
2023-04-10T03:16:48.764Z,1000.13
2023-04-10T03:17:48.771Z,1000.26
2023-04-10T03:18:48.730Z,1000.11
2023-04-10T03:19:48.756Z,1000.12
2023-04-10T03:20:48.706Z,1000.10
2023-04-10T03:21:48.707Z,1000.13
2023-04-10T03:22:48.689Z,1000.10
2023-04-10T03:23:48.680Z,1000.07
2023-04-10T03:24:48.666Z,1000.15
2023-04-10T03:25:48.687Z,1000.14
2023-04-10T03:26:48.647Z,1000.12
2023-04-10T03:27:48.649Z,1000.16
2023-04-10T03:28:48.637Z,1000.12
2023-04-10T03:29:48.620Z,1000.10
2023-04-10T03:30:48.624Z,1000.04
2023-04-10T03:31:48.647Z,1000.02
2023-04-10T03:32:48.592Z,1000.00
2023-04-10T03:33:48.593Z,1000.04
2023-04-10T03:34:48.578Z,1000.06
2023-04-10T03:35:48.600Z,1000.07
2023-04-10T03:36:48.548Z,1000.02
2023-04-10T03:37:48.538Z,1000.06
2023-04-10T03:38:48.525Z,1000.10
2023-04-10T03:39:48.513Z,1000.03
2023-04-10T03:40:48.523Z,1000.11
2023-04-10T03:41:48.491Z,1000.02
2023-04-10T03:42:48.491Z,1000.08
2023-04-10T03:43:48.475Z,1000.06
2023-04-10T03:44:48.465Z,1000.00
2023-04-10T03:45:48.471Z,1000.00
2023-04-10T03:46:48.477Z,1000.01
2023-04-10T03:47:48.444Z,1000.04
2023-04-10T03:48:48.420Z,1000.11
2023-04-10T03:49:48.412Z,1000.02
2023-04-10T03:50:48.419Z,1000.06
2023-04-10T03:51:48.402Z,999.96
2023-04-10T03:52:48.381Z,999.97
2023-04-10T03:53:48.367Z,1000.01
2023-04-10T03:54:48.355Z,1000.02
2023-04-10T03:55:48.369Z,1000.07
2023-04-10T03:56:48.343Z,999.99
2023-04-10T03:57:48.322Z,1000.00
2023-04-10T03:58:48.320Z,999.98
2023-04-10T03:59:48.307Z,999.98
2023-04-10T04:00:48.362Z,999.93
2023-04-10T04:01:48.348Z,999.99
2023-04-10T04:02:48.465Z,1000.00
2023-04-10T04:03:48.359Z,1000.00
2023-04-10T04:04:48.385Z,1000.06
2023-04-10T04:05:48.252Z,1000.06
2023-04-10T04:06:48.237Z,1000.05
2023-04-10T04:07:48.220Z,1000.08
2023-04-10T04:08:48.216Z,999.97
2023-04-10T04:09:48.208Z,1000.06
2023-04-10T04:10:48.204Z,1000.06
2023-04-10T04:11:48.176Z,1000.08
2023-04-10T04:12:48.196Z,999.96
2023-04-10T04:13:48.168Z,1000.10
2023-04-10T04:14:48.159Z,1000.00
2023-04-10T04:15:48.150Z,1000.05
2023-04-10T04:16:48.154Z,1000.14
2023-04-10T04:17:48.201Z,1000.14
2023-04-10T04:18:48.115Z,1000.05
2023-04-10T04:19:48.097Z,1000.06
2023-04-10T04:20:48.107Z,1000.04
2023-04-10T04:21:48.082Z,1000.02
2023-04-10T04:22:48.070Z,1000.07
2023-04-10T04:23:48.055Z,1000.04
2023-04-10T04:24:48.044Z,999.99
2023-04-10T04:25:48.044Z,1000.08
2023-04-10T04:26:48.016Z,1000.08
2023-04-10T04:27:48.015Z,1000.05
2023-04-10T04:28:48.003Z,1000.00
2023-04-10T04:29:47.996Z,999.95
2023-04-10T04:30:47.993Z,1000.03
2023-04-10T04:31:47.988Z,999.98
2023-04-10T04:32:48.102Z,999.95
2023-04-10T04:33:47.949Z,999.97
2023-04-10T04:34:47.942Z,1000.06
2023-04-10T04:35:47.945Z,999.97
2023-04-10T04:36:47.920Z,1000.02
2023-04-10T04:37:47.986Z,1000.02
2023-04-10T04:38:47.905Z,1000.05
2023-04-10T04:39:47.912Z,1000.03
2023-04-10T04:40:47.894Z,1000.02
2023-04-10T04:41:47.872Z,1000.19
2023-04-10T04:42:47.858Z,1000.14
2023-04-10T04:43:47.855Z,1000.06
2023-04-10T04:44:47.847Z,1000.10
2023-04-10T04:45:47.847Z,1000.18
2023-04-10T04:46:47.816Z,1000.18
2023-04-10T04:47:47.873Z,1000.10
2023-04-10T04:48:47.802Z,1000.09
2023-04-10T04:49:47.792Z,1000.11
2023-04-10T04:50:47.801Z,1000.09
2023-04-10T04:51:47.769Z,1000.13
2023-04-10T04:52:47.783Z,1000.11
2023-04-10T04:53:47.767Z,1000.12
2023-04-10T04:54:47.738Z,1000.16
2023-04-10T04:55:47.736Z,1000.08
2023-04-10T04:56:47.720Z,1000.09
2023-04-10T04:57:47.725Z,1000.07
2023-04-10T04:58:47.703Z,1000.03
2023-04-10T04:59:47.694Z,1000.12
2023-04-10T05:00:47.696Z,1000.04
2023-04-10T05:01:47.731Z,1000.04
2023-04-10T05:02:47.711Z,1000.07
2023-04-10T05:03:47.706Z,1000.00
2023-04-10T05:04:47.639Z,999.98
2023-04-10T05:05:47.637Z,1000.01
2023-04-10T05:06:47.621Z,1000.09
2023-04-10T05:07:47.614Z,999.99
2023-04-10T05:08:47.593Z,999.99
2023-04-10T05:09:47.584Z,999.97
2023-04-10T05:10:47.580Z,1000.12
2023-04-10T05:11:47.562Z,1000.00
2023-04-10T05:12:47.558Z,999.99
2023-04-10T05:13:47.552Z,1000.05
2023-04-10T05:14:47.534Z,1000.08
2023-04-10T05:15:47.576Z,1000.10
2023-04-10T05:16:47.513Z,1000.09
2023-04-10T05:17:47.563Z,1000.06
2023-04-10T05:18:47.552Z,1000.09
2023-04-10T05:19:47.481Z,1000.08
2023-04-10T05:20:47.498Z,1000.10
2023-04-10T05:21:47.454Z,1000.08
2023-04-10T05:22:47.443Z,1000.07
2023-04-10T05:23:47.433Z,1000.04
2023-04-10T05:24:47.424Z,1000.07
2023-04-10T05:25:47.429Z,1000.07
2023-04-10T05:26:47.407Z,1000.10
2023-04-10T05:27:47.412Z,1000.06
2023-04-10T05:28:47.378Z,1000.12
2023-04-10T05:29:47.382Z,1000.06
2023-04-10T05:30:47.451Z,1000.17
2023-04-10T05:31:47.375Z,1000.04
2023-04-10T05:32:47.381Z,1000.11
2023-04-10T05:33:47.330Z,1000.05
2023-04-10T05:34:47.312Z,1000.10
2023-04-10T05:35:47.384Z,1000.05
2023-04-10T05:36:47.299Z,1000.09
2023-04-10T05:37:47.294Z,1000.02
2023-04-10T05:38:47.288Z,1000.07
2023-04-10T05:39:47.291Z,1000.08
2023-04-10T05:40:47.291Z,1000.14
2023-04-10T05:41:47.257Z,1000.10
2023-04-10T05:42:47.251Z,1000.15
2023-04-10T05:43:47.239Z,1000.14
2023-04-10T05:44:47.230Z,1000.20
2023-04-10T05:45:47.216Z,1000.07
2023-04-10T05:46:47.308Z,1000.18
2023-04-10T05:47:47.252Z,1000.14
2023-04-10T05:48:47.176Z,1000.12
2023-04-10T05:49:47.188Z,1000.15
2023-04-10T05:50:47.160Z,1000.13
2023-04-10T05:51:47.171Z,1000.19
2023-04-10T05:52:47.139Z,1000.12
2023-04-10T05:53:47.128Z,1000.15
2023-04-10T05:54:47.133Z,1000.06
2023-04-10T05:55:47.111Z,1000.07
2023-04-10T05:56:47.105Z,1000.11
2023-04-10T05:57:47.099Z,1000.10
2023-04-10T05:58:47.072Z,1000.13
2023-04-10T05:59:47.064Z,1000.11
2023-04-10T06:00:47.043Z,1000.14
2023-04-10T06:01:47.125Z,1000.11
2023-04-10T06:02:47.108Z,1000.14
2023-04-10T06:03:47.128Z,1000.05
2023-04-10T06:04:47.111Z,1000.05
2023-04-10T06:05:46.994Z,1000.09
2023-04-10T06:06:46.993Z,1000.04
2023-04-10T06:07:46.977Z,1000.04
2023-04-10T06:08:46.957Z,1000.17
2023-04-10T06:09:46.966Z,1000.08
2023-04-10T06:10:46.952Z,1000.12
2023-04-10T06:11:46.950Z,1000.11
2023-04-10T06:12:48.049Z,1000.11
2023-04-10T06:13:46.921Z,1000.10
2023-04-10T06:14:46.893Z,1000.08
2023-04-10T06:15:46.918Z,1000.13
2023-04-10T06:16:48.164Z,1000.07
2023-04-10T06:17:46.893Z,1000.13
2023-04-10T06:18:46.866Z,999.95
2023-04-10T06:19:46.860Z,999.99
2023-04-10T06:20:46.837Z,1000.04
2023-04-10T06:21:46.835Z,1000.12
2023-04-10T06:22:46.825Z,1000.02
2023-04-10T06:23:46.808Z,999.96
2023-04-10T06:24:47.029Z,1000.03
2023-04-10T06:25:46.784Z,1000.02
2023-04-10T06:26:46.784Z,999.96
2023-04-10T06:27:46.766Z,999.99
2023-04-10T06:28:46.772Z,1000.05
2023-04-10T06:29:46.751Z,999.94
2023-04-10T06:30:46.734Z,1000.00
2023-04-10T06:31:46.848Z,1000.00
2023-04-10T06:32:46.731Z,999.93
2023-04-10T06:33:46.698Z,1000.00
2023-04-10T06:34:46.683Z,999.95
2023-04-10T06:35:46.698Z,999.87
2023-04-10T06:36:46.688Z,999.88
2023-04-10T06:37:46.675Z,999.90
2023-04-10T06:38:46.638Z,999.88
2023-04-10T06:39:46.652Z,999.90
2023-04-10T06:40:46.621Z,999.90
2023-04-10T06:41:46.625Z,999.90
2023-04-10T06:42:46.611Z,999.99
2023-04-10T06:43:46.605Z,999.93
2023-04-10T06:44:46.583Z,999.95
2023-04-10T06:45:46.625Z,999.97
2023-04-10T06:46:46.583Z,999.90
2023-04-10T06:47:46.613Z,999.95
2023-04-10T06:48:46.539Z,999.86
2023-04-10T06:49:46.533Z,999.92
2023-04-10T06:50:46.627Z,999.88
2023-04-10T06:51:46.522Z,999.76
2023-04-10T06:52:46.494Z,999.82
2023-04-10T06:53:46.492Z,999.87
2023-04-10T06:54:46.473Z,999.83
2023-04-10T06:55:46.469Z,999.82
2023-04-10T06:56:46.472Z,999.83
2023-04-10T06:57:46.450Z,999.87
2023-04-10T06:58:46.437Z,999.79
2023-04-10T06:59:46.426Z,999.79
2023-04-10T07:00:46.468Z,999.79
2023-04-10T07:01:46.438Z,999.79
2023-04-10T07:02:46.453Z,999.83
2023-04-10T07:03:46.407Z,999.76
2023-04-10T07:04:46.674Z,999.79
2023-04-10T07:05:46.359Z,999.74
2023-04-10T07:06:47.123Z,999.73
2023-04-10T07:07:46.533Z,999.73
2023-04-10T07:08:46.325Z,999.77
2023-04-10T07:09:46.322Z,999.73
2023-04-10T07:10:46.321Z,999.72
2023-04-10T07:11:46.344Z,999.72
2023-04-10T07:12:46.294Z,999.73
2023-04-10T07:13:46.277Z,999.71
2023-04-10T07:14:46.274Z,999.62
2023-04-10T07:15:46.258Z,999.71
2023-04-10T07:16:46.462Z,999.58
2023-04-10T07:17:46.261Z,999.63
2023-04-10T07:18:47.498Z,999.58
2023-04-10T07:19:46.229Z,999.57
2023-04-10T07:20:46.207Z,999.59
2023-04-10T07:21:46.206Z,999.60
2023-04-10T07:22:46.180Z,999.59
2023-04-10T07:23:46.200Z,999.60
2023-04-10T07:24:46.169Z,999.59
2023-04-10T07:25:46.162Z,999.49
2023-04-10T07:26:46.156Z,999.58
2023-04-10T07:27:46.132Z,999.52
2023-04-10T07:28:46.120Z,999.45
2023-04-10T07:29:46.112Z,999.41
2023-04-10T07:30:46.109Z,999.43
2023-04-10T07:31:46.167Z,999.42
2023-04-10T07:32:46.174Z,999.42
2023-04-10T07:33:46.130Z,999.40
2023-04-10T07:34:46.065Z,999.44
2023-04-10T07:35:46.064Z,999.38
2023-04-10T07:36:46.229Z,999.47
2023-04-10T07:37:46.020Z,999.38
2023-04-10T07:38:46.018Z,999.43
2023-04-10T07:39:46.002Z,999.34
2023-04-10T07:40:45.994Z,999.32
2023-04-10T07:41:45.994Z,999.38
2023-04-10T07:42:45.974Z,999.39
2023-04-10T07:43:45.961Z,999.32
2023-04-10T07:44:45.946Z,999.31
2023-04-10T07:45:45.969Z,999.32
2023-04-10T07:46:45.952Z,999.30
2023-04-10T07:47:45.965Z,999.28
2023-04-10T07:48:45.908Z,999.33
2023-04-10T07:49:45.910Z,999.27
2023-04-10T07:50:45.879Z,999.22
2023-04-10T07:51:45.880Z,999.27
2023-04-10T07:52:45.876Z,999.22
2023-04-10T07:53:45.851Z,999.28
2023-04-10T07:54:45.835Z,999.26
2023-04-10T07:55:45.868Z,999.22
2023-04-10T07:56:45.825Z,999.26
2023-04-10T07:57:45.830Z,999.24
2023-04-10T07:58:45.805Z,999.25
2023-04-10T07:59:45.786Z,999.24
2023-04-10T08:00:45.773Z,999.24
2023-04-10T08:01:45.864Z,999.21
2023-04-10T08:02:45.891Z,999.12
2023-04-10T08:03:45.945Z,999.19
2023-04-10T08:04:45.836Z,999.17
2023-04-10T08:05:45.730Z,999.16
2023-04-10T08:06:45.731Z,999.12
2023-04-10T08:07:45.716Z,999.08
2023-04-10T08:08:45.699Z,999.04
2023-04-10T08:09:45.688Z,999.02
2023-04-10T08:10:45.688Z,999.08
2023-04-10T08:11:45.688Z,999.03
2023-04-10T08:12:45.654Z,998.99
2023-04-10T08:13:45.652Z,999.10
2023-04-10T08:14:45.636Z,998.99
2023-04-10T08:15:45.634Z,999.00
2023-04-10T08:16:45.720Z,999.01
2023-04-10T08:17:45.656Z,998.98
2023-04-10T08:18:45.628Z,998.98
2023-04-10T08:19:45.586Z,999.02
2023-04-10T08:20:45.569Z,999.00
2023-04-10T08:21:45.573Z,998.99
2023-04-10T08:22:45.552Z,998.97
2023-04-10T08:23:45.540Z,998.90
2023-04-10T08:24:45.528Z,998.84
2023-04-10T08:25:45.525Z,998.84
2023-04-10T08:26:45.516Z,998.84
2023-04-10T08:27:45.503Z,998.97
2023-04-10T08:28:45.487Z,998.81
2023-04-10T08:29:45.498Z,998.93
2023-04-10T08:30:45.497Z,998.78
2023-04-10T08:31:45.489Z,998.86
2023-04-10T08:32:45.458Z,998.86
2023-04-10T08:33:45.433Z,998.86
2023-04-10T08:34:45.425Z,998.84
2023-04-10T08:35:45.444Z,998.83
2023-04-10T08:36:45.418Z,998.76
2023-04-10T08:37:49.742Z,998.81
2023-04-10T08:38:46.388Z,998.79
2023-04-10T08:39:45.369Z,998.69
2023-04-10T08:40:45.355Z,998.66
2023-04-10T08:41:45.372Z,998.71
2023-04-10T08:42:45.338Z,998.61
2023-04-10T08:43:45.329Z,998.67
2023-04-10T08:44:45.332Z,998.56
2023-04-10T08:45:45.331Z,998.53
2023-04-10T08:46:45.318Z,998.54
2023-04-10T08:47:45.364Z,998.57
2023-04-10T08:48:45.293Z,998.53
2023-04-10T08:49:45.264Z,998.59
2023-04-10T08:50:45.267Z,998.61
2023-04-10T08:51:46.309Z,998.60
2023-04-10T08:52:45.255Z,998.56
2023-04-10T08:53:45.225Z,998.57
2023-04-10T08:54:45.217Z,998.64
2023-04-10T08:55:45.207Z,998.54
2023-04-10T08:56:45.199Z,998.55
2023-04-10T08:57:50.880Z,998.60
2023-04-10T08:58:46.189Z,998.56
2023-04-10T08:59:45.183Z,998.55
2023-04-10T09:00:45.158Z,998.57
2023-04-10T09:01:45.185Z,998.60
2023-04-10T09:02:45.343Z,998.49
2023-04-10T09:03:45.171Z,998.44
2023-04-10T09:04:45.202Z,998.47
2023-04-10T09:05:45.114Z,998.42
2023-04-10T09:06:45.095Z,998.41
2023-04-10T09:07:45.091Z,998.43
2023-04-10T09:08:45.082Z,998.49
2023-04-10T09:09:45.070Z,998.48
2023-04-10T09:10:45.048Z,998.59
2023-04-10T09:11:45.041Z,998.45
2023-04-10T09:12:45.037Z,998.34
2023-04-10T09:13:45.059Z,998.37
2023-04-10T09:14:45.024Z,998.34
2023-04-10T09:15:45.074Z,998.35
2023-04-10T09:16:44.987Z,998.23
2023-04-10T09:17:45.031Z,998.30
2023-04-10T09:18:44.975Z,998.21
2023-04-10T09:19:44.956Z,998.26
2023-04-10T09:20:44.942Z,998.25
2023-04-10T09:21:45.036Z,998.29
2023-04-10T09:22:44.935Z,998.25
2023-04-10T09:23:44.923Z,998.28
2023-04-10T09:24:44.916Z,998.25
2023-04-10T09:25:44.891Z,998.22
2023-04-10T09:26:44.875Z,998.23
2023-04-10T09:27:44.871Z,998.22
2023-04-10T09:28:44.853Z,998.17
2023-04-10T09:29:44.851Z,998.12
2023-04-10T09:30:44.845Z,998.25
2023-04-10T09:31:44.943Z,998.18
2023-04-10T09:32:44.838Z,998.19
2023-04-10T09:33:44.802Z,998.08
2023-04-10T09:34:44.792Z,998.08
2023-04-10T09:35:44.778Z,998.17
2023-04-10T09:36:44.853Z,998.14
2023-04-10T09:37:44.779Z,998.05
2023-04-10T09:38:44.752Z,998.09
2023-04-10T09:39:44.749Z,998.04
2023-04-10T09:40:44.732Z,998.02
2023-04-10T09:41:44.722Z,998.03
2023-04-10T09:42:44.729Z,997.99
2023-04-10T09:43:44.700Z,997.90
2023-04-10T09:44:44.695Z,997.90
2023-04-10T09:45:44.685Z,997.91
2023-04-10T09:46:44.700Z,997.84
2023-04-10T09:47:44.713Z,997.88
2023-04-10T09:48:44.673Z,997.94
2023-04-10T09:49:44.640Z,997.77
2023-04-10T09:50:44.647Z,997.81
2023-04-10T09:51:44.615Z,997.74
2023-04-10T09:52:44.618Z,997.73
2023-04-10T09:53:44.617Z,997.73
2023-04-10T09:54:44.590Z,997.75
2023-04-10T09:55:44.588Z,997.69
2023-04-10T09:56:44.567Z,997.71
2023-04-10T09:57:44.566Z,997.69
2023-04-10T09:58:44.544Z,997.67
2023-04-10T09:59:44.552Z,997.61
2023-04-10T10:00:44.549Z,997.68
2023-04-10T10:01:44.698Z,997.57
2023-04-10T10:02:44.686Z,997.58
2023-04-10T10:03:44.542Z,997.62
2023-04-10T10:04:44.536Z,997.54
2023-04-10T10:05:44.476Z,997.67
2023-04-10T10:06:44.465Z,997.55
2023-04-10T10:07:44.470Z,997.52
2023-04-10T10:08:44.432Z,997.48
2023-04-10T10:09:44.437Z,997.41
2023-04-10T10:10:44.427Z,997.33
2023-04-10T10:11:44.404Z,997.30
2023-04-10T10:12:44.453Z,997.40
2023-04-10T10:13:44.404Z,997.36
2023-04-10T10:14:44.392Z,997.30
2023-04-10T10:15:44.357Z,997.28
2023-04-10T10:16:44.537Z,997.44
2023-04-10T10:17:44.369Z,997.35
2023-04-10T10:18:44.332Z,997.31
2023-04-10T10:19:44.373Z,997.28
2023-04-10T10:20:44.311Z,997.33
2023-04-10T10:21:44.304Z,997.25
2023-04-10T10:22:44.310Z,997.27
2023-04-10T10:23:44.289Z,997.37
2023-04-10T10:24:44.275Z,997.31
2023-04-10T10:25:44.262Z,997.29
2023-04-10T10:26:44.262Z,997.18
2023-04-10T10:27:44.254Z,997.12
2023-04-10T10:28:44.252Z,997.04
2023-04-10T10:29:44.222Z,997.21
2023-04-10T10:30:44.218Z,997.18
2023-04-10T10:31:44.260Z,997.06
2023-04-10T10:32:44.216Z,997.08
2023-04-10T10:33:45.383Z,997.07
2023-04-10T10:34:45.343Z,997.03
2023-04-10T10:35:45.343Z,996.95
2023-04-10T10:36:45.341Z,997.06
2023-04-10T10:37:45.305Z,996.95
2023-04-10T10:38:46.416Z,996.94
2023-04-10T10:39:45.336Z,997.02
2023-04-10T10:40:45.326Z,997.06
2023-04-10T10:41:45.333Z,997.02
2023-04-10T10:42:45.279Z,996.95
2023-04-10T10:43:45.290Z,996.87
2023-04-10T10:44:45.265Z,996.90
2023-04-10T10:45:46.350Z,996.88
2023-04-10T10:46:45.255Z,997.01
2023-04-10T10:47:45.331Z,996.88
2023-04-10T10:48:45.273Z,996.83
2023-04-10T10:49:45.221Z,996.83
2023-04-10T10:50:45.208Z,996.78
2023-04-10T10:51:45.255Z,996.79
2023-04-10T10:52:45.200Z,996.76
2023-04-10T10:53:45.198Z,996.76
2023-04-10T10:54:58.945Z,996.71
2023-04-10T10:55:47.151Z,996.69
2023-04-10T10:56:45.142Z,996.63
2023-04-10T10:57:47.610Z,996.77
2023-04-10T10:58:45.152Z,996.69
2023-04-10T10:59:45.132Z,996.68
2023-04-10T11:00:45.943Z,996.66
2023-04-10T11:01:45.152Z,996.65
2023-04-10T11:02:45.388Z,996.66
2023-04-10T11:03:45.267Z,996.71
2023-04-10T11:04:45.140Z,996.68
2023-04-10T11:05:45.040Z,996.62
2023-04-10T11:06:45.036Z,996.68
2023-04-10T11:07:46.662Z,996.73
2023-04-10T11:08:45.036Z,996.61
2023-04-10T11:09:45.162Z,996.66
2023-04-10T11:10:47.894Z,996.68
2023-04-10T11:11:45.997Z,996.66
2023-04-10T11:12:45.000Z,996.68
2023-04-10T11:13:45.002Z,996.61
2023-04-10T11:14:44.944Z,996.64
2023-04-10T11:15:44.959Z,996.57
2023-04-10T11:16:44.999Z,996.62
2023-04-10T11:17:44.985Z,996.55
2023-04-10T11:18:44.960Z,996.60
2023-04-10T11:19:44.899Z,996.56
2023-04-10T11:20:44.925Z,996.54
2023-04-10T11:21:45.013Z,996.54
2023-04-10T11:22:44.876Z,996.61
2023-04-10T11:23:44.893Z,996.52
2023-04-10T11:24:44.898Z,996.45
2023-04-10T11:25:44.862Z,996.42
2023-04-10T11:26:44.867Z,996.42
2023-04-10T11:27:44.994Z,996.40
2023-04-10T11:28:44.876Z,996.29
2023-04-10T11:29:45.811Z,996.32
2023-04-10T11:30:44.813Z,996.29
2023-04-10T11:31:44.841Z,996.25
2023-04-10T11:32:45.039Z,996.31
2023-04-10T11:33:44.754Z,996.13
2023-04-10T11:34:44.766Z,996.17
2023-04-10T11:35:44.789Z,996.17
2023-04-10T11:36:44.826Z,996.12
2023-04-10T11:37:44.756Z,996.12
2023-04-10T11:38:44.776Z,996.10
2023-04-10T11:39:48.062Z,996.17
2023-04-10T11:40:45.709Z,996.07
2023-04-10T11:41:44.876Z,996.09
2023-04-10T11:42:44.741Z,996.14
2023-04-10T11:43:44.746Z,995.98
2023-04-10T11:44:45.372Z,996.11
2023-04-10T11:45:44.673Z,996.11
2023-04-10T11:46:44.734Z,996.06
2023-04-10T11:47:44.666Z,995.99
2023-04-10T11:48:44.693Z,995.99
2023-04-10T11:49:44.628Z,996.00
2023-04-10T11:50:44.613Z,996.06
2023-04-10T11:51:44.595Z,995.88
2023-04-10T11:52:44.611Z,995.93
2023-04-10T11:53:53.129Z,995.89
2023-04-10T11:54:45.576Z,995.87
2023-04-10T11:55:44.563Z,995.84
2023-04-10T11:56:44.751Z,995.85
2023-04-10T11:57:44.625Z,995.84
2023-04-10T11:58:46.661Z,995.77
2023-04-10T11:59:44.592Z,995.75
2023-04-10T12:00:45.336Z,995.73
2023-04-10T12:01:44.537Z,995.65
2023-04-10T12:02:44.652Z,995.66
2023-04-10T12:03:44.636Z,995.68
2023-04-10T12:04:44.779Z,995.60
2023-04-10T12:05:44.464Z,995.56
2023-04-10T12:06:52.130Z,995.55
2023-04-10T12:07:45.466Z,995.56
2023-04-10T12:08:44.437Z,995.51
2023-04-10T12:09:44.426Z,995.47
2023-04-10T12:10:44.420Z,995.52
2023-04-10T12:11:44.438Z,995.53
2023-04-10T12:12:44.409Z,995.46
2023-04-10T12:13:44.410Z,995.43
2023-04-10T12:14:44.396Z,995.32
2023-04-10T12:15:44.439Z,995.27
2023-04-10T12:16:44.362Z,995.39
2023-04-10T12:17:44.373Z,995.42